sensor_id;sensor_type;location;lat;lon;timestamp;P1;durP1;ratioP1;P2;durP2;ratioP2
75854;SDS011;64502;59.976;30.316;2022-12-07T00:01:05;11.50;;;5.03;;
75854;SDS011;64502;59.976;30.316;2022-12-07T00:03:32;9.65;;;4.47;;
75854;SDS011;64502;59.976;30.316;2022-12-07T00:05:58;14.80;;;6.07;;
75854;SDS011;64502;59.976;30.316;2022-12-07T00:08:23;13.82;;;5.55;;
75854;SDS011;64502;59.976;30.316;2022-12-07T00:10:49;14.63;;;5.50;;
75854;SDS011;64502;59.976;30.316;2022-12-07T00:13:14;16.60;;;7.00;;
75854;SDS011;64502;59.976;30.316;2022-12-07T00:15:40;10.85;;;5.00;;
75854;SDS011;64502;59.976;30.316;2022-12-07T00:18:05;8.75;;;4.43;;
75854;SDS011;64502;59.976;30.316;2022-12-07T00:20:34;10.80;;;5.80;;
75854;SDS011;64502;59.976;30.316;2022-12-07T00:23:00;13.82;;;4.70;;
75854;SDS011;64502;59.976;30.316;2022-12-07T00:25:25;13.45;;;5.57;;
75854;SDS011;64502;59.976;30.316;2022-12-07T00:27:54;12.35;;;5.43;;
75854;SDS011;64502;59.976;30.316;2022-12-07T00:30:22;12.05;;;4.68;;
75854;SDS011;64502;59.976;30.316;2022-12-07T00:32:48;12.10;;;5.80;;
75854;SDS011;64502;59.976;30.316;2022-12-07T00:35:14;13.00;;;5.07;;
75854;SDS011;64502;59.976;30.316;2022-12-07T00:37:40;11.57;;;4.85;;
75854;SDS011;64502;59.976;30.316;2022-12-07T00:40:05;12.85;;;5.65;;
75854;SDS011;64502;59.976;30.316;2022-12-07T00:42:31;14.05;;;5.25;;
75854;SDS011;64502;59.976;30.316;2022-12-07T00:44:57;12.25;;;4.45;;
75854;SDS011;64502;59.976;30.316;2022-12-07T00:47:22;12.13;;;5.72;;
75854;SDS011;64502;59.976;30.316;2022-12-07T00:49:48;11.00;;;5.45;;
75854;SDS011;64502;59.976;30.316;2022-12-07T00:52:13;12.52;;;5.55;;
75854;SDS011;64502;59.976;30.316;2022-12-07T00:54:39;14.85;;;6.60;;
75854;SDS011;64502;59.976;30.316;2022-12-07T00:57:05;14.05;;;5.18;;
75854;SDS011;64502;59.976;30.316;2022-12-07T00:59:30;10.98;;;5.60;;
75854;SDS011;64502;59.976;30.316;2022-12-07T01:01:56;15.00;;;6.40;;
75854;SDS011;64502;59.976;30.316;2022-12-07T01:04:21;13.00;;;5.60;;
75854;SDS011;64502;59.976;30.316;2022-12-07T01:06:46;12.43;;;5.40;;
75854;SDS011;64502;59.976;30.316;2022-12-07T01:09:12;13.25;;;5.20;;
75854;SDS011;64502;59.976;30.316;2022-12-07T01:11:37;10.60;;;4.63;;
75854;SDS011;64502;59.976;30.316;2022-12-07T01:14:03;12.77;;;6.43;;
75854;SDS011;64502;59.976;30.316;2022-12-07T01:16:29;11.52;;;4.50;;
75854;SDS011;64502;59.976;30.316;2022-12-07T01:18:56;9.27;;;4.25;;
75854;SDS011;64502;59.976;30.316;2022-12-07T01:21:24;11.35;;;5.07;;
75854;SDS011;64502;59.976;30.316;2022-12-07T01:23:56;10.45;;;5.53;;
75854;SDS011;64502;59.976;30.316;2022-12-07T01:26:22;12.48;;;5.43;;
75854;SDS011;64502;59.976;30.316;2022-12-07T01:28:49;10.23;;;4.00;;
75854;SDS011;64502;59.976;30.316;2022-12-07T01:31:16;10.93;;;4.97;;
75854;SDS011;64502;59.976;30.316;2022-12-07T01:33:45;8.90;;;4.18;;
75854;SDS011;64502;59.976;30.316;2022-12-07T01:36:19;8.90;;;4.47;;
75854;SDS011;64502;59.976;30.316;2022-12-07T01:38:47;10.88;;;5.25;;
75854;SDS011;64502;59.976;30.316;2022-12-07T01:41:16;9.65;;;4.53;;
75854;SDS011;64502;59.976;30.316;2022-12-07T01:46:51;13.25;;;4.72;;
75854;SDS011;64502;59.976;30.316;2022-12-07T01:52:13;13.27;;;4.63;;
75854;SDS011;64502;59.976;30.316;2022-12-07T01:54:42;10.45;;;4.93;;
75854;SDS011;64502;59.976;30.316;2022-12-07T01:57:09;8.32;;;3.33;;
75854;SDS011;64502;59.976;30.316;2022-12-07T01:59:36;11.05;;;5.53;;
75854;SDS011;64502;59.976;30.316;2022-12-07T02:02:03;9.27;;;3.95;;
75854;SDS011;64502;59.976;30.316;2022-12-07T02:04:35;10.45;;;5.00;;
75854;SDS011;64502;59.976;30.316;2022-12-07T02:07:01;11.95;;;5.10;;
75854;SDS011;64502;59.976;30.316;2022-12-07T02:09:29;9.48;;;4.32;;
75854;SDS011;64502;59.976;30.316;2022-12-07T02:11:55;9.20;;;4.55;;
75854;SDS011;64502;59.976;30.316;2022-12-07T02:14:21;9.73;;;4.68;;
75854;SDS011;64502;59.976;30.316;2022-12-07T02:16:49;9.48;;;4.22;;
75854;SDS011;64502;59.976;30.316;2022-12-07T02:27:50;11.02;;;4.93;;
75854;SDS011;64502;59.976;30.316;2022-12-07T02:30:28;7.93;;;3.63;;
75854;SDS011;64502;59.976;30.316;2022-12-07T02:35:56;10.65;;;4.07;;
75854;SDS011;64502;59.976;30.316;2022-12-07T02:42:03;8.82;;;4.03;;
75854;SDS011;64502;59.976;30.316;2022-12-07T02:45:31;11.13;;;4.78;;
75854;SDS011;64502;59.976;30.316;2022-12-07T02:48:44;7.18;;;3.40;;
75854;SDS011;64502;59.976;30.316;2022-12-07T02:51:42;8.55;;;4.07;;
75854;SDS011;64502;59.976;30.316;2022-12-07T02:54:32;9.30;;;3.80;;
75854;SDS011;64502;59.976;30.316;2022-12-07T02:57:34;7.82;;;3.80;;
75854;SDS011;64502;59.976;30.316;2022-12-07T03:00:20;11.73;;;4.65;;
75854;SDS011;64502;59.976;30.316;2022-12-07T03:03:02;8.93;;;4.32;;
75854;SDS011;64502;59.976;30.316;2022-12-07T03:05:59;8.65;;;4.65;;
75854;SDS011;64502;59.976;30.316;2022-12-07T03:12:08;6.10;;;2.70;;
75854;SDS011;64502;59.976;30.316;2022-12-07T03:14:45;7.72;;;3.85;;
75854;SDS011;64502;59.976;30.316;2022-12-07T03:17:26;9.52;;;4.82;;
75854;SDS011;64502;59.976;30.316;2022-12-07T03:19:58;7.93;;;3.78;;
75854;SDS011;64502;59.976;30.316;2022-12-07T03:22:44;8.45;;;3.83;;
75854;SDS011;64502;59.976;30.316;2022-12-07T03:25:15;12.10;;;4.05;;
75854;SDS011;64502;59.976;30.316;2022-12-07T03:27:55;8.68;;;4.05;;
75854;SDS011;64502;59.976;30.316;2022-12-07T03:30:35;8.52;;;4.35;;
75854;SDS011;64502;59.976;30.316;2022-12-07T03:36:14;10.02;;;4.85;;
75854;SDS011;64502;59.976;30.316;2022-12-07T03:41:58;8.63;;;3.83;;
75854;SDS011;64502;59.976;30.316;2022-12-07T03:44:26;7.40;;;3.70;;
75854;SDS011;64502;59.976;30.316;2022-12-07T03:52:24;10.68;;;3.85;;
75854;SDS011;64502;59.976;30.316;2022-12-07T03:55:02;9.73;;;4.20;;
75854;SDS011;64502;59.976;30.316;2022-12-07T03:57:34;8.27;;;4.50;;
75854;SDS011;64502;59.976;30.316;2022-12-07T04:00:03;7.40;;;3.67;;
75854;SDS011;64502;59.976;30.316;2022-12-07T04:02:31;8.02;;;4.07;;
75854;SDS011;64502;59.976;30.316;2022-12-07T04:04:58;8.82;;;3.60;;
75854;SDS011;64502;59.976;30.316;2022-12-07T04:07:23;8.77;;;3.70;;
75854;SDS011;64502;59.976;30.316;2022-12-07T04:09:49;9.82;;;3.88;;
75854;SDS011;64502;59.976;30.316;2022-12-07T04:12:15;8.35;;;3.45;;
75854;SDS011;64502;59.976;30.316;2022-12-07T04:14:40;7.13;;;3.67;;
75854;SDS011;64502;59.976;30.316;2022-12-07T04:17:06;8.55;;;3.70;;
75854;SDS011;64502;59.976;30.316;2022-12-07T04:19:32;8.15;;;3.80;;
75854;SDS011;64502;59.976;30.316;2022-12-07T04:21:59;7.10;;;3.33;;
75854;SDS011;64502;59.976;30.316;2022-12-07T04:24:25;8.77;;;4.25;;
75854;SDS011;64502;59.976;30.316;2022-12-07T04:26:51;10.77;;;3.60;;
75854;SDS011;64502;59.976;30.316;2022-12-07T04:29:17;7.85;;;3.60;;
75854;SDS011;64502;59.976;30.316;2022-12-07T04:31:43;6.85;;;3.65;;
75854;SDS011;64502;59.976;30.316;2022-12-07T04:34:09;8.18;;;3.58;;
75854;SDS011;64502;59.976;30.316;2022-12-07T04:36:35;10.82;;;4.13;;
75854;SDS011;64502;59.976;30.316;2022-12-07T04:39:02;7.80;;;3.67;;
75854;SDS011;64502;59.976;30.316;2022-12-07T04:41:28;7.25;;;4.35;;
75854;SDS011;64502;59.976;30.316;2022-12-07T04:43:57;9.13;;;3.83;;
75854;SDS011;64502;59.976;30.316;2022-12-07T04:46:28;8.35;;;3.83;;
75854;SDS011;64502;59.976;30.316;2022-12-07T04:48:55;10.75;;;3.60;;
75854;SDS011;64502;59.976;30.316;2022-12-07T04:51:22;7.80;;;3.72;;
75854;SDS011;64502;59.976;30.316;2022-12-07T04:53:49;10.90;;;3.80;;
75854;SDS011;64502;59.976;30.316;2022-12-07T04:56:15;9.60;;;3.97;;
75854;SDS011;64502;59.976;30.316;2022-12-07T04:58:41;8.30;;;3.63;;
75854;SDS011;64502;59.976;30.316;2022-12-07T05:01:08;8.35;;;3.75;;
75854;SDS011;64502;59.976;30.316;2022-12-07T05:03:33;10.07;;;4.68;;
75854;SDS011;64502;59.976;30.316;2022-12-07T05:06:00;10.23;;;4.13;;
75854;SDS011;64502;59.976;30.316;2022-12-07T05:08:26;9.32;;;3.75;;
75854;SDS011;64502;59.976;30.316;2022-12-07T05:10:51;7.72;;;3.75;;
75854;SDS011;64502;59.976;30.316;2022-12-07T05:13:17;8.82;;;3.83;;
75854;SDS011;64502;59.976;30.316;2022-12-07T05:15:42;9.75;;;4.32;;
75854;SDS011;64502;59.976;30.316;2022-12-07T05:18:09;9.50;;;4.53;;
75854;SDS011;64502;59.976;30.316;2022-12-07T05:20:37;9.40;;;4.50;;
75854;SDS011;64502;59.976;30.316;2022-12-07T05:23:03;10.18;;;4.07;;
75854;SDS011;64502;59.976;30.316;2022-12-07T05:25:35;8.93;;;3.90;;
75854;SDS011;64502;59.976;30.316;2022-12-07T05:28:01;13.05;;;4.78;;
75854;SDS011;64502;59.976;30.316;2022-12-07T05:30:27;9.93;;;4.07;;
75854;SDS011;64502;59.976;30.316;2022-12-07T05:32:54;7.30;;;3.28;;
75854;SDS011;64502;59.976;30.316;2022-12-07T05:35:20;8.02;;;3.50;;
75854;SDS011;64502;59.976;30.316;2022-12-07T05:37:45;7.63;;;4.35;;
75854;SDS011;64502;59.976;30.316;2022-12-07T05:40:11;10.90;;;4.50;;
75854;SDS011;64502;59.976;30.316;2022-12-07T05:42:38;9.77;;;3.58;;
75854;SDS011;64502;59.976;30.316;2022-12-07T05:45:04;10.98;;;4.93;;
75854;SDS011;64502;59.976;30.316;2022-12-07T05:47:30;9.48;;;3.95;;
75854;SDS011;64502;59.976;30.316;2022-12-07T05:49:55;8.98;;;4.30;;
75854;SDS011;64502;59.976;30.316;2022-12-07T05:52:21;8.35;;;4.15;;
75854;SDS011;64502;59.976;30.316;2022-12-07T05:54:47;9.50;;;4.18;;
75854;SDS011;64502;59.976;30.316;2022-12-07T05:57:12;9.32;;;4.32;;
75854;SDS011;64502;59.976;30.316;2022-12-07T05:59:38;8.38;;;3.58;;
75854;SDS011;64502;59.976;30.316;2022-12-07T06:02:05;7.35;;;3.78;;
75854;SDS011;64502;59.976;30.316;2022-12-07T06:04:33;8.00;;;4.03;;
75854;SDS011;64502;59.976;30.316;2022-12-07T06:07:04;9.90;;;4.55;;
75854;SDS011;64502;59.976;30.316;2022-12-07T06:09:30;10.68;;;4.57;;
75854;SDS011;64502;59.976;30.316;2022-12-07T06:11:57;11.32;;;4.35;;
75854;SDS011;64502;59.976;30.316;2022-12-07T06:14:41;10.98;;;4.30;;
75854;SDS011;64502;59.976;30.316;2022-12-07T06:17:07;9.95;;;4.82;;
75854;SDS011;64502;59.976;30.316;2022-12-07T06:19:33;9.88;;;4.70;;
75854;SDS011;64502;59.976;30.316;2022-12-07T06:21:58;10.38;;;3.90;;
75854;SDS011;64502;59.976;30.316;2022-12-07T06:24:27;10.60;;;3.85;;
75854;SDS011;64502;59.976;30.316;2022-12-07T06:27:08;8.55;;;3.72;;
75854;SDS011;64502;59.976;30.316;2022-12-07T06:29:40;7.88;;;3.72;;
75854;SDS011;64502;59.976;30.316;2022-12-07T06:32:09;6.82;;;3.50;;
75854;SDS011;64502;59.976;30.316;2022-12-07T06:34:34;8.73;;;4.00;;
75854;SDS011;64502;59.976;30.316;2022-12-07T06:37:00;6.57;;;3.05;;
75854;SDS011;64502;59.976;30.316;2022-12-07T06:39:26;9.60;;;3.97;;
75854;SDS011;64502;59.976;30.316;2022-12-07T06:41:53;8.80;;;3.72;;
75854;SDS011;64502;59.976;30.316;2022-12-07T06:44:19;9.27;;;3.65;;
75854;SDS011;64502;59.976;30.316;2022-12-07T06:46:48;7.72;;;3.67;;
75854;SDS011;64502;59.976;30.316;2022-12-07T06:49:18;9.88;;;4.47;;
75854;SDS011;64502;59.976;30.316;2022-12-07T06:54:10;7.13;;;3.70;;
75854;SDS011;64502;59.976;30.316;2022-12-07T06:56:37;9.05;;;3.58;;
75854;SDS011;64502;59.976;30.316;2022-12-07T06:59:03;7.55;;;2.92;;
75854;SDS011;64502;59.976;30.316;2022-12-07T07:01:30;6.40;;;3.63;;
75854;SDS011;64502;59.976;30.316;2022-12-07T07:03:56;8.00;;;3.35;;
75854;SDS011;64502;59.976;30.316;2022-12-07T07:06:21;9.43;;;3.78;;
75854;SDS011;64502;59.976;30.316;2022-12-07T07:08:56;6.72;;;3.35;;
75854;SDS011;64502;59.976;30.316;2022-12-07T07:11:49;8.00;;;2.97;;
75854;SDS011;64502;59.976;30.316;2022-12-07T07:14:23;9.40;;;3.25;;
75854;SDS011;64502;59.976;30.316;2022-12-07T07:16:57;6.18;;;2.45;;
75854;SDS011;64502;59.976;30.316;2022-12-07T07:19:50;6.60;;;3.47;;
75854;SDS011;64502;59.976;30.316;2022-12-07T07:22:15;7.00;;;3.17;;
75854;SDS011;64502;59.976;30.316;2022-12-07T07:24:41;5.60;;;3.20;;
75854;SDS011;64502;59.976;30.316;2022-12-07T07:27:07;7.25;;;3.30;;
75854;SDS011;64502;59.976;30.316;2022-12-07T07:29:32;10.63;;;3.10;;
75854;SDS011;64502;59.976;30.316;2022-12-07T07:31:58;5.40;;;2.75;;
75854;SDS011;64502;59.976;30.316;2022-12-07T07:34:24;9.80;;;3.25;;
75854;SDS011;64502;59.976;30.316;2022-12-07T07:36:50;5.57;;;2.53;;
75854;SDS011;64502;59.976;30.316;2022-12-07T07:39:15;8.95;;;3.05;;
75854;SDS011;64502;59.976;30.316;2022-12-07T07:41:41;8.10;;;3.10;;
75854;SDS011;64502;59.976;30.316;2022-12-07T07:44:06;6.95;;;3.28;;
75854;SDS011;64502;59.976;30.316;2022-12-07T07:46:33;12.32;;;3.78;;
75854;SDS011;64502;59.976;30.316;2022-12-07T07:48:59;6.47;;;2.70;;
75854;SDS011;64502;59.976;30.316;2022-12-07T07:51:24;8.93;;;3.38;;
75854;SDS011;64502;59.976;30.316;2022-12-07T07:53:49;8.07;;;3.13;;
75854;SDS011;64502;59.976;30.316;2022-12-07T07:56:15;7.07;;;2.83;;
75854;SDS011;64502;59.976;30.316;2022-12-07T07:58:40;7.13;;;2.58;;
75854;SDS011;64502;59.976;30.316;2022-12-07T08:01:06;6.63;;;2.70;;
75854;SDS011;64502;59.976;30.316;2022-12-07T08:03:32;7.90;;;2.67;;
75854;SDS011;64502;59.976;30.316;2022-12-07T08:05:57;4.72;;;2.33;;
75854;SDS011;64502;59.976;30.316;2022-12-07T08:08:23;8.65;;;2.63;;
75854;SDS011;64502;59.976;30.316;2022-12-07T08:10:48;5.18;;;2.53;;
75854;SDS011;64502;59.976;30.316;2022-12-07T08:13:17;6.75;;;2.10;;
75854;SDS011;64502;59.976;30.316;2022-12-07T08:15:43;5.60;;;2.47;;
75854;SDS011;64502;59.976;30.316;2022-12-07T08:18:11;8.52;;;2.60;;
75854;SDS011;64502;59.976;30.316;2022-12-07T08:20:38;6.20;;;2.90;;
75854;SDS011;64502;59.976;30.316;2022-12-07T08:23:04;7.72;;;3.05;;
75854;SDS011;64502;59.976;30.316;2022-12-07T08:25:32;8.57;;;2.72;;
75854;SDS011;64502;59.976;30.316;2022-12-07T08:27:58;7.40;;;2.65;;
75854;SDS011;64502;59.976;30.316;2022-12-07T08:30:23;9.23;;;2.75;;
75854;SDS011;64502;59.976;30.316;2022-12-07T08:32:49;6.07;;;2.33;;
75854;SDS011;64502;59.976;30.316;2022-12-07T08:35:16;7.15;;;2.92;;
75854;SDS011;64502;59.976;30.316;2022-12-07T08:37:42;6.07;;;2.88;;
75854;SDS011;64502;59.976;30.316;2022-12-07T08:40:08;8.43;;;4.05;;
75854;SDS011;64502;59.976;30.316;2022-12-07T08:42:35;5.57;;;3.08;;
75854;SDS011;64502;59.976;30.316;2022-12-07T08:45:09;9.68;;;3.35;;
75854;SDS011;64502;59.976;30.316;2022-12-07T08:47:37;10.70;;;4.65;;
75854;SDS011;64502;59.976;30.316;2022-12-07T08:50:06;9.48;;;4.22;;
75854;SDS011;64502;59.976;30.316;2022-12-07T08:52:33;7.15;;;3.85;;
75854;SDS011;64502;59.976;30.316;2022-12-07T08:55:01;7.63;;;3.90;;
75854;SDS011;64502;59.976;30.316;2022-12-07T08:57:28;13.20;;;4.18;;
75854;SDS011;64502;59.976;30.316;2022-12-07T08:59:54;9.25;;;3.63;;
75854;SDS011;64502;59.976;30.316;2022-12-07T09:02:20;9.05;;;5.20;;
75854;SDS011;64502;59.976;30.316;2022-12-07T09:04:46;8.35;;;3.28;;
75854;SDS011;64502;59.976;30.316;2022-12-07T09:07:11;8.48;;;4.05;;
75854;SDS011;64502;59.976;30.316;2022-12-07T09:09:37;10.35;;;3.80;;
75854;SDS011;64502;59.976;30.316;2022-12-07T09:12:02;8.63;;;3.42;;
75854;SDS011;64502;59.976;30.316;2022-12-07T09:14:28;8.50;;;3.25;;
75854;SDS011;64502;59.976;30.316;2022-12-07T09:16:53;8.07;;;3.33;;
75854;SDS011;64502;59.976;30.316;2022-12-07T09:19:19;6.70;;;3.47;;
75854;SDS011;64502;59.976;30.316;2022-12-07T09:21:44;9.85;;;3.80;;
75854;SDS011;64502;59.976;30.316;2022-12-07T09:24:11;7.25;;;4.20;;
75854;SDS011;64502;59.976;30.316;2022-12-07T09:26:37;8.63;;;2.83;;
75854;SDS011;64502;59.976;30.316;2022-12-07T09:29:04;8.57;;;3.53;;
75854;SDS011;64502;59.976;30.316;2022-12-07T09:31:30;8.18;;;3.35;;
75854;SDS011;64502;59.976;30.316;2022-12-07T09:33:56;11.82;;;3.70;;
75854;SDS011;64502;59.976;30.316;2022-12-07T09:38:51;8.52;;;3.22;;
75854;SDS011;64502;59.976;30.316;2022-12-07T09:41:17;8.48;;;3.28;;
75854;SDS011;64502;59.976;30.316;2022-12-07T09:43:43;8.32;;;3.20;;
75854;SDS011;64502;59.976;30.316;2022-12-07T09:46:14;7.38;;;3.10;;
75854;SDS011;64502;59.976;30.316;2022-12-07T09:48:43;9.85;;;3.63;;
75854;SDS011;64502;59.976;30.316;2022-12-07T09:51:20;7.45;;;2.92;;
75854;SDS011;64502;59.976;30.316;2022-12-07T09:53:47;9.57;;;3.60;;
75854;SDS011;64502;59.976;30.316;2022-12-07T09:56:14;6.88;;;3.28;;
75854;SDS011;64502;59.976;30.316;2022-12-07T09:58:42;6.40;;;2.40;;
75854;SDS011;64502;59.976;30.316;2022-12-07T10:03:40;8.25;;;3.22;;
75854;SDS011;64502;59.976;30.316;2022-12-07T10:06:15;8.52;;;3.00;;
75854;SDS011;64502;59.976;30.316;2022-12-07T10:08:40;7.68;;;2.63;;
75854;SDS011;64502;59.976;30.316;2022-12-07T10:11:08;5.82;;;3.58;;
75854;SDS011;64502;59.976;30.316;2022-12-07T10:13:42;7.13;;;2.83;;
75854;SDS011;64502;59.976;30.316;2022-12-07T10:16:35;7.10;;;3.05;;
75854;SDS011;64502;59.976;30.316;2022-12-07T10:19:18;7.03;;;2.90;;
75854;SDS011;64502;59.976;30.316;2022-12-07T10:21:59;6.32;;;2.70;;
75854;SDS011;64502;59.976;30.316;2022-12-07T10:24:26;5.30;;;2.35;;
75854;SDS011;64502;59.976;30.316;2022-12-07T10:26:52;3.88;;;1.65;;
75854;SDS011;64502;59.976;30.316;2022-12-07T10:29:23;5.53;;;2.63;;
75854;SDS011;64502;59.976;30.316;2022-12-07T10:39:43;7.88;;;2.63;;
75854;SDS011;64502;59.976;30.316;2022-12-07T10:42:20;7.78;;;2.45;;
75854;SDS011;64502;59.976;30.316;2022-12-07T10:44:47;7.43;;;3.22;;
75854;SDS011;64502;59.976;30.316;2022-12-07T10:58:37;5.65;;;2.45;;
75854;SDS011;64502;59.976;30.316;2022-12-07T11:07:09;5.68;;;2.50;;
75854;SDS011;64502;59.976;30.316;2022-12-07T11:09:49;6.82;;;2.25;;
75854;SDS011;64502;59.976;30.316;2022-12-07T11:18:06;5.90;;;2.13;;
75854;SDS011;64502;59.976;30.316;2022-12-07T11:20:49;7.25;;;2.85;;
75854;SDS011;64502;59.976;30.316;2022-12-07T11:37:17;6.25;;;2.90;;
75854;SDS011;64502;59.976;30.316;2022-12-07T11:39:54;6.28;;;2.42;;
75854;SDS011;64502;59.976;30.316;2022-12-07T11:42:26;8.48;;;2.75;;
75854;SDS011;64502;59.976;30.316;2022-12-07T11:45:00;7.38;;;2.90;;
75854;SDS011;64502;59.976;30.316;2022-12-07T11:50:24;7.97;;;2.70;;
75854;SDS011;64502;59.976;30.316;2022-12-07T11:52:56;9.65;;;2.80;;
75854;SDS011;64502;59.976;30.316;2022-12-07T11:56:14;7.28;;;2.53;;
75854;SDS011;64502;59.976;30.316;2022-12-07T12:04:46;7.25;;;2.53;;
75854;SDS011;64502;59.976;30.316;2022-12-07T12:07:06;6.63;;;2.58;;
75854;SDS011;64502;59.976;30.316;2022-12-07T12:09:39;4.97;;;2.05;;
75854;SDS011;64502;59.976;30.316;2022-12-07T12:12:20;5.88;;;2.58;;
75854;SDS011;64502;59.976;30.316;2022-12-07T12:14:59;10.80;;;3.97;;
75854;SDS011;64502;59.976;30.316;2022-12-07T12:20:32;5.93;;;2.58;;
75854;SDS011;64502;59.976;30.316;2022-12-07T12:23:07;6.18;;;2.85;;
75854;SDS011;64502;59.976;30.316;2022-12-07T12:25:39;5.53;;;2.45;;
75854;SDS011;64502;59.976;30.316;2022-12-07T12:28:18;8.60;;;3.28;;
75854;SDS011;64502;59.976;30.316;2022-12-07T12:33:59;7.95;;;3.22;;
75854;SDS011;64502;59.976;30.316;2022-12-07T12:44:01;7.22;;;2.55;;
75854;SDS011;64502;59.976;30.316;2022-12-07T12:51:43;6.65;;;3.08;;
75854;SDS011;64502;59.976;30.316;2022-12-07T12:59:33;7.28;;;2.55;;
75854;SDS011;64502;59.976;30.316;2022-12-07T13:04:50;6.75;;;2.47;;
75854;SDS011;64502;59.976;30.316;2022-12-07T13:10:24;9.38;;;3.55;;
75854;SDS011;64502;59.976;30.316;2022-12-07T13:18:36;6.47;;;3.10;;
75854;SDS011;64502;59.976;30.316;2022-12-07T13:24:12;7.20;;;2.90;;
75854;SDS011;64502;59.976;30.316;2022-12-07T13:26:41;8.95;;;2.65;;
75854;SDS011;64502;59.976;30.316;2022-12-07T13:29:17;6.85;;;3.50;;
75854;SDS011;64502;59.976;30.316;2022-12-07T13:31:49;7.20;;;3.42;;
75854;SDS011;64502;59.976;30.316;2022-12-07T13:37:02;8.00;;;2.85;;
75854;SDS011;64502;59.976;30.316;2022-12-07T13:39:36;9.50;;;3.22;;
75854;SDS011;64502;59.976;30.316;2022-12-07T13:42:46;9.63;;;3.20;;
75854;SDS011;64502;59.976;30.316;2022-12-07T13:45:22;6.47;;;2.78;;
75854;SDS011;64502;59.976;30.316;2022-12-07T13:48:20;6.05;;;3.30;;
75854;SDS011;64502;59.976;30.316;2022-12-07T13:50:52;6.65;;;3.08;;
75854;SDS011;64502;59.976;30.316;2022-12-07T13:53:21;7.95;;;3.58;;
75854;SDS011;64502;59.976;30.316;2022-12-07T13:55:47;8.57;;;3.63;;
75854;SDS011;64502;59.976;30.316;2022-12-07T13:58:44;6.43;;;3.28;;
75854;SDS011;64502;59.976;30.316;2022-12-07T14:01:10;10.32;;;3.72;;
75854;SDS011;64502;59.976;30.316;2022-12-07T14:03:36;9.60;;;3.67;;
75854;SDS011;64502;59.976;30.316;2022-12-07T14:06:11;5.82;;;2.30;;
75854;SDS011;64502;59.976;30.316;2022-12-07T14:08:41;7.22;;;3.85;;
75854;SDS011;64502;59.976;30.316;2022-12-07T14:11:10;7.20;;;2.97;;
75854;SDS011;64502;59.976;30.316;2022-12-07T14:14:10;9.48;;;4.07;;
75854;SDS011;64502;59.976;30.316;2022-12-07T14:17:12;8.60;;;3.63;;
75854;SDS011;64502;59.976;30.316;2022-12-07T14:19:46;10.07;;;3.78;;
75854;SDS011;64502;59.976;30.316;2022-12-07T14:22:32;6.18;;;2.92;;
75854;SDS011;64502;59.976;30.316;2022-12-07T14:27:57;8.10;;;4.13;;
75854;SDS011;64502;59.976;30.316;2022-12-07T14:30:28;9.57;;;3.97;;
75854;SDS011;64502;59.976;30.316;2022-12-07T14:33:02;10.05;;;4.28;;
75854;SDS011;64502;59.976;30.316;2022-12-07T14:35:30;10.75;;;5.18;;
75854;SDS011;64502;59.976;30.316;2022-12-07T14:37:56;9.73;;;4.22;;
75854;SDS011;64502;59.976;30.316;2022-12-07T14:40:24;9.48;;;4.13;;
75854;SDS011;64502;59.976;30.316;2022-12-07T14:43:04;11.82;;;4.80;;
75854;SDS011;64502;59.976;30.316;2022-12-07T14:45:34;8.18;;;2.95;;
75854;SDS011;64502;59.976;30.316;2022-12-07T14:47:59;8.75;;;4.72;;
75854;SDS011;64502;59.976;30.316;2022-12-07T14:50:25;10.88;;;4.07;;
75854;SDS011;64502;59.976;30.316;2022-12-07T14:53:00;10.25;;;3.88;;
75854;SDS011;64502;59.976;30.316;2022-12-07T14:55:30;9.25;;;4.18;;
75854;SDS011;64502;59.976;30.316;2022-12-07T14:57:56;8.27;;;3.95;;
75854;SDS011;64502;59.976;30.316;2022-12-07T15:00:23;14.07;;;4.88;;
75854;SDS011;64502;59.976;30.316;2022-12-07T15:02:50;9.10;;;4.47;;
75854;SDS011;64502;59.976;30.316;2022-12-07T15:05:17;9.82;;;4.88;;
75854;SDS011;64502;59.976;30.316;2022-12-07T15:07:43;17.42;;;8.23;;
75854;SDS011;64502;59.976;30.316;2022-12-07T15:10:23;11.88;;;5.22;;
75854;SDS011;64502;59.976;30.316;2022-12-07T15:12:54;12.73;;;5.57;;
75854;SDS011;64502;59.976;30.316;2022-12-07T15:15:19;11.60;;;4.43;;
75854;SDS011;64502;59.976;30.316;2022-12-07T15:17:45;10.40;;;4.70;;
75854;SDS011;64502;59.976;30.316;2022-12-07T15:20:16;14.02;;;5.43;;
75854;SDS011;64502;59.976;30.316;2022-12-07T15:22:42;11.27;;;5.53;;
75854;SDS011;64502;59.976;30.316;2022-12-07T15:25:08;8.75;;;4.75;;
75854;SDS011;64502;59.976;30.316;2022-12-07T15:27:37;11.38;;;4.30;;
75854;SDS011;64502;59.976;30.316;2022-12-07T15:30:03;10.00;;;5.88;;
75854;SDS011;64502;59.976;30.316;2022-12-07T15:32:29;12.23;;;5.88;;
75854;SDS011;64502;59.976;30.316;2022-12-07T15:34:54;14.73;;;5.93;;
75854;SDS011;64502;59.976;30.316;2022-12-07T15:37:20;16.73;;;5.93;;
75854;SDS011;64502;59.976;30.316;2022-12-07T15:39:45;12.20;;;5.50;;
75854;SDS011;64502;59.976;30.316;2022-12-07T15:42:11;13.13;;;5.82;;
75854;SDS011;64502;59.976;30.316;2022-12-07T15:44:36;13.57;;;5.97;;
75854;SDS011;64502;59.976;30.316;2022-12-07T15:47:20;11.55;;;5.10;;
75854;SDS011;64502;59.976;30.316;2022-12-07T15:49:46;11.90;;;6.15;;
75854;SDS011;64502;59.976;30.316;2022-12-07T15:52:11;15.30;;;5.53;;
75854;SDS011;64502;59.976;30.316;2022-12-07T15:54:37;16.13;;;5.93;;
75854;SDS011;64502;59.976;30.316;2022-12-07T15:57:02;16.35;;;4.97;;
75854;SDS011;64502;59.976;30.316;2022-12-07T15:59:28;11.00;;;4.00;;
75854;SDS011;64502;59.976;30.316;2022-12-07T16:01:54;11.85;;;4.90;;
75854;SDS011;64502;59.976;30.316;2022-12-07T16:04:21;11.30;;;5.25;;
75854;SDS011;64502;59.976;30.316;2022-12-07T16:06:47;11.05;;;4.75;;
75854;SDS011;64502;59.976;30.316;2022-12-07T16:09:15;13.23;;;4.50;;
75854;SDS011;64502;59.976;30.316;2022-12-07T16:11:42;8.35;;;4.10;;
75854;SDS011;64502;59.976;30.316;2022-12-07T16:14:08;12.23;;;4.45;;
75854;SDS011;64502;59.976;30.316;2022-12-07T16:16:36;9.35;;;4.25;;
75854;SDS011;64502;59.976;30.316;2022-12-07T16:19:02;11.15;;;4.10;;
75854;SDS011;64502;59.976;30.316;2022-12-07T16:21:27;9.15;;;4.60;;
75854;SDS011;64502;59.976;30.316;2022-12-07T16:23:53;11.13;;;3.67;;
75854;SDS011;64502;59.976;30.316;2022-12-07T16:26:20;12.10;;;4.78;;
75854;SDS011;64502;59.976;30.316;2022-12-07T16:28:50;6.72;;;3.95;;
75854;SDS011;64502;59.976;30.316;2022-12-07T16:31:21;10.10;;;4.45;;
75854;SDS011;64502;59.976;30.316;2022-12-07T16:33:50;9.45;;;4.30;;
75854;SDS011;64502;59.976;30.316;2022-12-07T16:36:17;8.05;;;3.72;;
75854;SDS011;64502;59.976;30.316;2022-12-07T16:38:44;7.53;;;3.95;;
75854;SDS011;64502;59.976;30.316;2022-12-07T16:41:10;13.70;;;4.85;;
75854;SDS011;64502;59.976;30.316;2022-12-07T16:43:36;9.70;;;4.22;;
75854;SDS011;64502;59.976;30.316;2022-12-07T16:46:02;8.93;;;4.95;;
75854;SDS011;64502;59.976;30.316;2022-12-07T16:48:28;11.38;;;5.65;;
75854;SDS011;64502;59.976;30.316;2022-12-07T16:50:54;13.15;;;4.30;;
75854;SDS011;64502;59.976;30.316;2022-12-07T16:53:21;11.23;;;4.60;;
75854;SDS011;64502;59.976;30.316;2022-12-07T16:55:48;14.77;;;5.97;;
75854;SDS011;64502;59.976;30.316;2022-12-07T16:58:14;8.70;;;4.88;;
75854;SDS011;64502;59.976;30.316;2022-12-07T17:00:41;10.35;;;4.55;;
75854;SDS011;64502;59.976;30.316;2022-12-07T17:03:08;11.40;;;4.32;;
75854;SDS011;64502;59.976;30.316;2022-12-07T17:05:41;11.10;;;5.30;;
75854;SDS011;64502;59.976;30.316;2022-12-07T17:08:07;10.77;;;4.82;;